Beverly, United Kingdom
Current Conditions -  °F | °C
As of 8:50 PM on Thursday 27 Nov 2014 (Local Time) from EGXV Reporting Station
Haze Haze  
Wind Chill: 45°   Ceiling: 22000
Heat Index: 45°   Visibility: 6mi
Dew Point: 45°   Wind: 3mph
Humidity: 100%   Direction: 190°S
Pressure: 29.62"   Gusts: NA
Location:  53.84°N, 0.43°W
Report Text: EGXV 271950Z AUTO 19003KT 9000 BR FEW110/// BKN220/// 07/07 Q1003
Loading
Personal Weather Stations






























Interactive Weather Map New forecast layout! Learn more

10-Day Weather Forecast

Advertisements
Track Severe Weather on mobile